createdAt,value
2019-04-16T00:00:17.634Z,4.18
2019-04-16T00:01:17.621Z,4.17
2019-04-16T00:02:18.755Z,4.13
2019-04-16T00:03:17.656Z,4.17
2019-04-16T00:04:17.599Z,4.16
2019-04-16T00:05:17.579Z,4.08
2019-04-16T00:06:17.566Z,4.00
2019-04-16T00:07:17.557Z,4.02
2019-04-16T00:08:27.238Z,4.10
2019-04-16T00:09:18.548Z,4.08
2019-04-16T00:10:17.526Z,4.11
2019-04-16T00:11:17.515Z,4.50
2019-04-16T00:12:17.522Z,4.54
2019-04-16T00:13:17.502Z,4.43
2019-04-16T00:14:17.531Z,4.34
2019-04-16T00:15:17.471Z,4.35
2019-04-16T00:16:17.459Z,4.32
2019-04-16T00:17:17.451Z,4.25
2019-04-16T00:18:18.755Z,4.13
2019-04-16T00:19:17.460Z,4.07
2019-04-16T00:20:17.451Z,4.17
2019-04-16T00:21:17.417Z,4.14
2019-04-16T00:22:17.408Z,4.14
2019-04-16T00:23:17.386Z,4.17
2019-04-16T00:24:18.523Z,4.10
2019-04-16T00:25:17.381Z,3.99
2019-04-16T00:26:17.400Z,3.88
2019-04-16T00:27:17.348Z,3.78
2019-04-16T00:28:17.332Z,3.67
2019-04-16T00:29:17.331Z,3.54
2019-04-16T00:30:17.327Z,3.67
2019-04-16T00:31:17.302Z,3.74
2019-04-16T00:32:17.336Z,3.67
2019-04-16T00:33:17.285Z,3.75
2019-04-16T00:34:17.276Z,3.93
2019-04-16T00:35:17.271Z,4.10
2019-04-16T00:36:18.146Z,4.02
2019-04-16T00:37:20.504Z,4.10
2019-04-16T00:38:17.265Z,4.11
2019-04-16T00:39:17.231Z,4.06
2019-04-16T00:40:17.226Z,3.96
2019-04-16T00:41:17.196Z,3.90
2019-04-16T00:42:17.191Z,3.92
2019-04-16T00:43:17.175Z,3.96
2019-04-16T00:44:17.203Z,4.00
2019-04-16T00:45:17.166Z,3.95
2019-04-16T00:46:17.144Z,3.90
2019-04-16T00:47:17.155Z,3.99
2019-04-16T00:48:17.141Z,4.08
2019-04-16T00:49:17.118Z,3.93
2019-04-16T00:50:17.169Z,3.86
2019-04-16T00:51:17.096Z,3.84
2019-04-16T00:52:17.088Z,3.77
2019-04-16T00:53:17.072Z,3.93
2019-04-16T00:54:17.058Z,3.82
2019-04-16T00:55:17.091Z,3.81
2019-04-16T00:56:17.061Z,3.82
2019-04-16T00:57:17.965Z,3.80
2019-04-16T00:58:19.508Z,3.81
2019-04-16T00:59:17.006Z,3.88
2019-04-16T01:00:17.011Z,3.80
2019-04-16T01:01:16.988Z,3.81
2019-04-16T01:02:17.002Z,3.90
2019-04-16T01:03:16.966Z,3.89
2019-04-16T01:04:16.955Z,3.67
2019-04-16T01:05:16.953Z,3.62
2019-04-16T01:06:16.935Z,3.50
2019-04-16T01:07:16.924Z,3.50
2019-04-16T01:08:16.949Z,3.52
2019-04-16T01:09:16.911Z,3.57
2019-04-16T01:10:16.914Z,3.56
2019-04-16T01:11:16.879Z,3.59
2019-04-16T01:12:16.873Z,3.60
2019-04-16T01:13:16.864Z,3.71
2019-04-16T01:14:16.895Z,3.80
2019-04-16T01:15:16.853Z,3.82
2019-04-16T01:16:16.827Z,3.78
2019-04-16T01:17:16.816Z,3.82
2019-04-16T01:18:16.806Z,3.98
2019-04-16T01:19:16.796Z,4.00
2019-04-16T01:20:16.844Z,4.00
2019-04-16T01:21:16.776Z,3.88
2019-04-16T01:22:16.917Z,3.89
2019-04-16T01:23:17.810Z,3.93
2019-04-16T01:24:17.496Z,4.08
2019-04-16T01:25:16.742Z,4.04
2019-04-16T01:26:16.757Z,4.16
2019-04-16T01:27:16.711Z,4.20
2019-04-16T01:28:16.704Z,4.34
2019-04-16T01:29:16.690Z,4.43
2019-04-16T01:30:16.703Z,4.35
2019-04-16T01:31:16.673Z,4.36
2019-04-16T01:32:16.706Z,4.31
2019-04-16T01:33:16.649Z,4.24
2019-04-16T01:34:18.161Z,4.16
2019-04-16T01:35:19.011Z,4.11
2019-04-16T01:36:16.626Z,4.16
2019-04-16T01:37:16.609Z,4.14
2019-04-16T01:38:16.623Z,4.11
2019-04-16T01:39:18.224Z,4.11
2019-04-16T01:40:18.752Z,4.08
2019-04-16T01:41:16.578Z,4.02
2019-04-16T01:42:16.557Z,4.00
2019-04-16T01:43:16.542Z,4.16
2019-04-16T01:44:16.574Z,4.62
2019-04-16T01:45:16.521Z,4.97
2019-04-16T01:46:16.522Z,5.20
2019-04-16T01:47:16.513Z,5.32
2019-04-16T01:48:16.511Z,5.30
2019-04-16T01:49:16.479Z,5.30
2019-04-16T01:50:16.492Z,5.33
2019-04-16T01:51:16.468Z,5.24
2019-04-16T01:52:19.064Z,5.15
2019-04-16T01:53:18.301Z,5.08
2019-04-16T01:54:16.428Z,4.93
2019-04-16T01:55:16.417Z,4.86
2019-04-16T01:56:16.470Z,4.65
2019-04-16T01:57:16.395Z,4.65
2019-04-16T01:58:16.386Z,4.46
2019-04-16T01:59:16.382Z,4.29
2019-04-16T02:00:16.364Z,4.13
2019-04-16T02:01:16.363Z,4.08
2019-04-16T02:02:16.384Z,3.95
2019-04-16T02:03:17.813Z,3.89
2019-04-16T02:04:19.529Z,3.80
2019-04-16T02:05:16.319Z,3.63
2019-04-16T02:06:16.385Z,3.49
2019-04-16T02:07:16.299Z,3.42
2019-04-16T02:08:16.278Z,3.35
2019-04-16T02:09:22.727Z,3.26
2019-04-16T02:10:17.266Z,3.19
2019-04-16T02:11:16.258Z,3.16
2019-04-16T02:12:16.242Z,3.10
2019-04-16T02:13:16.230Z,3.04
2019-04-16T02:14:18.476Z,2.90
2019-04-16T02:15:16.229Z,2.84
2019-04-16T02:16:16.216Z,3.12
2019-04-16T02:17:16.185Z,3.25
2019-04-16T02:18:16.184Z,3.35
2019-04-16T02:19:16.163Z,3.77
2019-04-16T02:20:16.155Z,3.74
2019-04-16T02:21:16.178Z,3.82
2019-04-16T02:22:16.131Z,3.82
2019-04-16T02:23:16.706Z,3.78
2019-04-16T02:24:18.592Z,3.80
2019-04-16T02:25:18.772Z,3.67
2019-04-16T02:26:16.113Z,3.49
2019-04-16T02:27:16.143Z,3.62
2019-04-16T02:28:16.077Z,3.46
2019-04-16T02:29:16.056Z,3.31
2019-04-16T02:30:16.052Z,3.22
2019-04-16T02:31:16.436Z,3.17
2019-04-16T02:32:16.045Z,3.17
2019-04-16T02:33:16.064Z,3.26
2019-04-16T02:34:16.014Z,3.20
2019-04-16T02:35:16.026Z,3.08
2019-04-16T02:36:15.988Z,3.04
2019-04-16T02:37:15.982Z,3.01
2019-04-16T02:38:15.962Z,3.02
2019-04-16T02:39:15.989Z,2.94
2019-04-16T02:40:18.335Z,2.94
2019-04-16T02:41:15.934Z,2.83
2019-04-16T02:42:15.936Z,2.86
2019-04-16T02:43:15.911Z,2.81
2019-04-16T02:44:17.077Z,2.69
2019-04-16T02:45:23.016Z,2.77
2019-04-16T02:46:16.875Z,2.65
2019-04-16T02:47:15.883Z,2.80
2019-04-16T02:48:17.354Z,2.87
2019-04-16T02:49:15.849Z,3.08
2019-04-16T02:50:15.841Z,3.34
2019-04-16T02:51:15.851Z,3.64
2019-04-16T02:52:17.324Z,4.07
2019-04-16T02:53:15.807Z,4.61
2019-04-16T02:54:15.811Z,4.69
2019-04-16T02:55:15.791Z,4.65
2019-04-16T02:56:18.766Z,4.65
2019-04-16T02:57:15.817Z,4.62
2019-04-16T02:58:15.755Z,4.72
2019-04-16T02:59:15.740Z,5.01
2019-04-16T03:00:18.473Z,5.15
2019-04-16T03:01:20.410Z,5.15
2019-04-16T03:02:16.716Z,5.27
2019-04-16T03:03:15.745Z,5.32
2019-04-16T03:04:15.686Z,5.26
2019-04-16T03:05:15.676Z,5.30
2019-04-16T03:06:15.665Z,5.38
2019-04-16T03:07:15.664Z,5.67
2019-04-16T03:08:15.644Z,5.69
2019-04-16T03:09:15.667Z,5.77
2019-04-16T03:10:15.639Z,5.80
2019-04-16T03:11:17.121Z,5.90
2019-04-16T03:12:17.546Z,5.92
2019-04-16T03:13:16.594Z,6.16
2019-04-16T03:14:15.624Z,6.25
2019-04-16T03:15:15.596Z,6.30
2019-04-16T03:16:15.563Z,6.51
2019-04-16T03:17:15.589Z,6.50
2019-04-16T03:18:16.185Z,6.63
2019-04-16T03:19:19.259Z,6.58
2019-04-16T03:20:15.519Z,6.60
2019-04-16T03:21:15.563Z,6.57
2019-04-16T03:22:15.505Z,6.71
2019-04-16T03:23:15.485Z,6.64
2019-04-16T03:24:15.476Z,6.81
2019-04-16T03:25:15.468Z,6.79
2019-04-16T03:26:17.531Z,6.71
2019-04-16T03:27:15.478Z,6.64
2019-04-16T03:28:15.432Z,6.53
2019-04-16T03:29:15.500Z,6.50
2019-04-16T03:30:15.750Z,6.39
2019-04-16T03:31:22.231Z,6.42
2019-04-16T03:32:16.735Z,6.36
2019-04-16T03:33:16.017Z,6.46
2019-04-16T03:34:15.368Z,6.43
2019-04-16T03:35:15.360Z,6.53
2019-04-16T03:36:15.347Z,6.48
2019-04-16T03:37:15.336Z,6.54
2019-04-16T03:38:15.344Z,6.68
2019-04-16T03:39:15.361Z,6.75
2019-04-16T03:40:18.290Z,6.91
2019-04-16T03:41:15.300Z,6.81
2019-04-16T03:42:15.284Z,6.73
2019-04-16T03:43:15.283Z,6.65
2019-04-16T03:44:15.261Z,6.71
2019-04-16T03:45:15.293Z,6.58
2019-04-16T03:46:15.245Z,6.72
2019-04-16T03:47:15.780Z,6.68
2019-04-16T03:48:15.481Z,6.79
2019-04-16T03:49:15.208Z,6.69
2019-04-16T03:50:15.216Z,6.58
2019-04-16T03:51:15.214Z,6.58
2019-04-16T03:52:15.181Z,6.57
2019-04-16T03:53:17.583Z,6.61
2019-04-16T03:54:15.157Z,6.71
2019-04-16T03:55:15.154Z,6.71
2019-04-16T03:56:15.139Z,6.81
2019-04-16T03:57:15.224Z,6.81
2019-04-16T03:58:15.310Z,6.86
2019-04-16T03:59:15.323Z,6.86
2019-04-16T04:00:15.316Z,6.76
2019-04-16T04:01:15.559Z,6.90
2019-04-16T04:02:18.923Z,6.87
2019-04-16T04:03:16.127Z,6.82
2019-04-16T04:04:15.072Z,6.87
2019-04-16T04:05:15.067Z,6.87
2019-04-16T04:06:15.031Z,6.89
2019-04-16T04:07:15.029Z,6.81
2019-04-16T04:08:17.608Z,6.90
2019-04-16T04:09:15.035Z,6.76
2019-04-16T04:10:29.034Z,6.78
2019-04-16T04:11:16.007Z,6.81
2019-04-16T04:12:14.970Z,6.89
2019-04-16T04:13:18.586Z,6.87
2019-04-16T04:14:15.007Z,6.86
2019-04-16T04:15:15.068Z,6.78
2019-04-16T04:16:14.924Z,6.65
2019-04-16T04:17:14.913Z,6.68
2019-04-16T04:18:14.922Z,6.60
2019-04-16T04:19:15.997Z,6.58
2019-04-16T04:20:18.161Z,6.51
2019-04-16T04:21:14.927Z,6.50
2019-04-16T04:22:14.862Z,6.58
2019-04-16T04:23:14.863Z,6.68
2019-04-16T04:24:14.841Z,6.79
2019-04-16T04:25:14.847Z,6.63
2019-04-16T04:26:14.820Z,6.73
2019-04-16T04:27:18.637Z,6.63
2019-04-16T04:28:18.465Z,6.79
2019-04-16T04:29:15.874Z,6.83
2019-04-16T04:30:14.781Z,6.82
2019-04-16T04:31:14.771Z,6.94
2019-04-16T04:32:14.755Z,6.99
2019-04-16T04:33:14.826Z,6.97
2019-04-16T04:34:16.956Z,7.07
2019-04-16T04:35:20.159Z,7.11
2019-04-16T04:36:18.709Z,7.14
2019-04-16T04:37:14.702Z,7.12
2019-04-16T04:38:14.693Z,7.11
2019-04-16T04:39:15.804Z,7.19
2019-04-16T04:40:16.258Z,7.19
2019-04-16T04:41:14.658Z,7.14
2019-04-16T04:42:14.648Z,7.11
2019-04-16T04:43:14.639Z,7.14
2019-04-16T04:44:14.643Z,7.04
2019-04-16T04:45:14.643Z,7.01
2019-04-16T04:46:15.605Z,6.93
2019-04-16T04:47:15.533Z,6.97
2019-04-16T04:48:14.586Z,7.04
2019-04-16T04:49:14.585Z,6.96
2019-04-16T04:50:14.565Z,6.99
2019-04-16T04:51:14.619Z,7.00
2019-04-16T04:52:15.211Z,7.01
2019-04-16T04:53:15.656Z,6.99
2019-04-16T04:54:14.534Z,7.00
2019-04-16T04:55:14.511Z,7.04
2019-04-16T04:56:14.500Z,6.99
2019-04-16T04:57:14.523Z,7.04
2019-04-16T04:58:14.481Z,7.00
2019-04-16T04:59:14.481Z,6.99
2019-04-16T05:00:14.463Z,7.00
2019-04-16T05:01:14.447Z,7.04
2019-04-16T05:02:15.446Z,7.07
2019-04-16T05:03:15.534Z,7.18
2019-04-16T05:04:19.274Z,7.09
2019-04-16T05:05:15.404Z,7.01
2019-04-16T05:06:14.395Z,6.93
2019-04-16T05:07:14.384Z,6.96
2019-04-16T05:08:14.373Z,6.97
2019-04-16T05:09:14.424Z,6.90
2019-04-16T05:10:14.357Z,6.91
2019-04-16T05:11:15.837Z,6.97
2019-04-16T05:12:14.338Z,6.93
2019-04-16T05:13:14.320Z,6.83
2019-04-16T05:14:14.417Z,6.79
2019-04-16T05:15:14.335Z,6.90
2019-04-16T05:16:14.298Z,6.87
2019-04-16T05:17:14.288Z,6.83
2019-04-16T05:18:14.270Z,6.86
2019-04-16T05:19:15.665Z,6.76
2019-04-16T05:20:15.450Z,6.81
2019-04-16T05:21:17.841Z,6.81
2019-04-16T05:22:14.231Z,6.82
2019-04-16T05:23:14.250Z,6.82
2019-04-16T05:24:14.204Z,6.82
2019-04-16T05:25:14.222Z,6.90
2019-04-16T05:26:14.310Z,6.96
2019-04-16T05:27:14.235Z,6.90
2019-04-16T05:28:14.253Z,6.86
2019-04-16T05:29:17.150Z,6.68
2019-04-16T05:30:14.310Z,6.55
2019-04-16T05:31:14.347Z,6.54
2019-04-16T05:32:14.121Z,6.51
2019-04-16T05:33:14.150Z,6.48
2019-04-16T05:34:17.197Z,6.46
2019-04-16T05:35:14.128Z,6.57
2019-04-16T05:36:15.319Z,6.54
2019-04-16T05:37:16.675Z,6.55
2019-04-16T05:38:15.060Z,6.64
2019-04-16T05:39:14.100Z,6.81
2019-04-16T05:40:14.068Z,6.87
2019-04-16T05:41:20.517Z,6.99
2019-04-16T05:42:15.208Z,6.97
2019-04-16T05:43:14.085Z,7.30
2019-04-16T05:44:13.997Z,7.30
2019-04-16T05:45:13.995Z,7.39
2019-04-16T05:46:14.017Z,7.51
2019-04-16T05:47:16.827Z,7.63
2019-04-16T05:48:13.955Z,7.70
2019-04-16T05:49:13.957Z,7.88
2019-04-16T05:50:13.958Z,7.95
2019-04-16T05:51:13.923Z,8.03
2019-04-16T05:52:13.963Z,8.00
2019-04-16T05:53:14.044Z,8.22
2019-04-16T05:54:13.891Z,8.32
2019-04-16T05:55:17.659Z,8.40
2019-04-16T05:56:13.869Z,8.57
2019-04-16T05:57:13.871Z,8.73
2019-04-16T05:58:13.918Z,8.79
2019-04-16T05:59:13.836Z,9.12
2019-04-16T06:00:14.055Z,9.32
2019-04-16T06:01:14.413Z,9.50
2019-04-16T06:02:15.081Z,9.98
2019-04-16T06:03:13.793Z,10.16
2019-04-16T06:04:13.822Z,10.54
2019-04-16T06:05:13.787Z,10.76
2019-04-16T06:06:13.794Z,10.99
2019-04-16T06:07:13.841Z,10.99
2019-04-16T06:08:13.741Z,11.08
2019-04-16T06:09:13.736Z,11.08
2019-04-16T06:10:17.533Z,10.99
2019-04-16T06:11:27.638Z,11.41
2019-04-16T06:12:14.696Z,11.33
2019-04-16T06:13:13.687Z,11.30
2019-04-16T06:14:17.600Z,11.46
2019-04-16T06:15:14.711Z,11.59
2019-04-16T06:16:13.688Z,11.66
2019-04-16T06:17:13.664Z,12.11
2019-04-16T06:18:13.870Z,12.11
2019-04-16T06:19:13.625Z,12.03
2019-04-16T06:20:19.052Z,12.04
2019-04-16T06:21:14.600Z,12.41
2019-04-16T06:22:13.590Z,12.26
2019-04-16T06:23:13.614Z,12.55
2019-04-16T06:24:13.568Z,12.61
2019-04-16T06:25:13.696Z,12.88
2019-04-16T06:26:16.338Z,12.95
2019-04-16T06:27:13.542Z,13.07
2019-04-16T06:28:13.539Z,13.01
2019-04-16T06:29:13.715Z,13.25
2019-04-16T06:30:13.516Z,13.54
2019-04-16T06:31:13.494Z,13.72
2019-04-16T06:32:13.490Z,14.27
2019-04-16T06:33:13.481Z,14.57
2019-04-16T06:34:13.871Z,14.52
2019-04-16T06:35:13.527Z,14.83
2019-04-16T06:36:13.448Z,14.83
2019-04-16T06:37:13.433Z,15.12
2019-04-16T06:38:13.422Z,15.55
2019-04-16T06:39:13.412Z,15.93
2019-04-16T06:40:13.422Z,16.54
2019-04-16T06:41:13.408Z,16.57
2019-04-16T06:42:13.383Z,16.72
2019-04-16T06:43:13.365Z,16.48
2019-04-16T06:44:13.361Z,15.33
2019-04-16T06:45:13.345Z,15.84
2019-04-16T06:46:13.345Z,16.08
2019-04-16T06:47:13.344Z,16.08
2019-04-16T06:48:13.983Z,16.75
2019-04-16T06:49:14.353Z,16.96
2019-04-16T06:50:13.408Z,16.32
2019-04-16T06:51:13.308Z,16.40
2019-04-16T06:52:16.637Z,16.33
2019-04-16T06:53:13.282Z,15.88
2019-04-16T06:54:13.278Z,15.84
2019-04-16T06:55:13.283Z,15.85
2019-04-16T06:56:13.288Z,15.13
2019-04-16T06:57:13.215Z,15.41
2019-04-16T06:58:16.644Z,15.77
2019-04-16T06:59:16.685Z,15.84
2019-04-16T07:00:13.209Z,15.35
2019-04-16T07:01:13.181Z,15.84
2019-04-16T07:02:13.165Z,15.44
2019-04-16T07:03:13.149Z,15.99
2019-04-16T07:04:13.154Z,15.78
2019-04-16T07:05:13.146Z,15.51
2019-04-16T07:06:13.208Z,15.74
2019-04-16T07:07:13.105Z,15.55
2019-04-16T07:08:17.894Z,16.41
2019-04-16T07:09:14.085Z,15.95
2019-04-16T07:10:13.077Z,16.37
2019-04-16T07:11:13.080Z,17.15
2019-04-16T07:12:13.084Z,16.65
2019-04-16T07:13:13.081Z,16.85
2019-04-16T07:14:15.576Z,17.32
2019-04-16T07:15:13.062Z,16.73
2019-04-16T07:16:13.021Z,16.08
2019-04-16T07:17:13.001Z,15.98
2019-04-16T07:18:12.992Z,15.96
2019-04-16T07:19:12.983Z,16.33
2019-04-16T07:20:14.122Z,16.65
2019-04-16T07:21:14.549Z,16.90
2019-04-16T07:22:12.962Z,16.98
2019-04-16T07:23:13.076Z,17.46
2019-04-16T07:24:12.945Z,17.68
2019-04-16T07:25:13.018Z,17.98
2019-04-16T07:26:14.617Z,17.95
2019-04-16T07:27:12.971Z,18.35
2019-04-16T07:28:12.917Z,18.57
2019-04-16T07:29:12.872Z,18.93
2019-04-16T07:30:12.877Z,19.52
2019-04-16T07:31:16.605Z,19.16
2019-04-16T07:32:13.899Z,19.21
2019-04-16T07:33:12.831Z,18.78
2019-04-16T07:34:12.927Z,18.38
2019-04-16T07:35:12.816Z,18.82
2019-04-16T07:36:12.798Z,19.06
2019-04-16T07:37:12.869Z,18.75
2019-04-16T07:38:12.790Z,18.83
2019-04-16T07:39:13.519Z,19.47
2019-04-16T07:40:13.752Z,19.58
2019-04-16T07:41:12.743Z,19.60
2019-04-16T07:42:18.559Z,18.96
2019-04-16T07:43:15.582Z,18.82
2019-04-16T07:44:12.718Z,19.28
2019-04-16T07:45:13.187Z,19.64
2019-04-16T07:46:12.692Z,19.60
2019-04-16T07:47:12.787Z,19.82
2019-04-16T07:48:12.683Z,19.30
2019-04-16T07:49:12.671Z,18.82
2019-04-16T07:50:12.665Z,18.53
2019-04-16T07:51:12.678Z,18.62
2019-04-16T07:52:12.659Z,18.69
2019-04-16T07:53:14.355Z,18.72
2019-04-16T07:54:12.675Z,19.05
2019-04-16T07:55:12.610Z,19.27
2019-04-16T07:56:12.595Z,19.80
2019-04-16T07:57:12.622Z,19.31
2019-04-16T07:58:12.573Z,19.17
2019-04-16T07:59:12.570Z,19.30
2019-04-16T08:00:12.545Z,19.50
2019-04-16T08:01:16.075Z,19.38
2019-04-16T08:02:12.527Z,18.96
2019-04-16T08:03:12.518Z,19.20
2019-04-16T08:04:12.509Z,19.45
2019-04-16T08:05:12.494Z,19.43
2019-04-16T08:06:14.391Z,19.61
2019-04-16T08:07:12.486Z,19.85
2019-04-16T08:08:12.492Z,19.43
2019-04-16T08:09:12.474Z,18.96
2019-04-16T08:10:12.442Z,18.78
2019-04-16T08:11:12.577Z,18.82
2019-04-16T08:12:28.953Z,18.96
2019-04-16T08:13:14.161Z,19.27
2019-04-16T08:14:14.634Z,19.82
2019-04-16T08:15:15.151Z,20.31
2019-04-16T08:16:12.374Z,20.25
2019-04-16T08:17:12.388Z,19.89
2019-04-16T08:18:12.355Z,19.45
2019-04-16T08:19:15.117Z,19.06
2019-04-16T08:20:12.337Z,18.83
2019-04-16T08:21:12.550Z,18.64
2019-04-16T08:22:15.463Z,18.09
2019-04-16T08:23:12.327Z,17.89
2019-04-16T08:24:12.470Z,17.99
2019-04-16T08:25:12.286Z,17.99
2019-04-16T08:26:13.657Z,17.96
2019-04-16T08:27:17.959Z,17.77
2019-04-16T08:28:13.259Z,17.46
2019-04-16T08:29:12.221Z,17.35
2019-04-16T08:30:12.227Z,17.40
2019-04-16T08:31:13.260Z,17.49
2019-04-16T08:32:12.896Z,17.63
2019-04-16T08:33:12.200Z,18.09
2019-04-16T08:34:12.174Z,18.35
2019-04-16T08:35:12.268Z,18.86
2019-04-16T08:36:12.158Z,18.99
2019-04-16T08:37:12.162Z,18.87
2019-04-16T08:38:12.150Z,18.86
2019-04-16T08:39:12.133Z,18.89
2019-04-16T08:40:13.120Z,18.82
2019-04-16T08:41:13.213Z,19.10
2019-04-16T08:42:12.102Z,19.38
2019-04-16T08:43:12.092Z,19.60
2019-04-16T08:44:12.070Z,19.86
2019-04-16T08:45:12.183Z,20.02
2019-04-16T08:46:12.046Z,20.37
2019-04-16T08:47:12.957Z,19.95
2019-04-16T08:48:17.295Z,19.82
2019-04-16T08:49:14.787Z,19.57
2019-04-16T08:50:12.602Z,19.94
2019-04-16T08:51:11.985Z,20.23
2019-04-16T08:52:12.010Z,20.83
2019-04-16T08:53:14.240Z,21.03
2019-04-16T08:54:11.973Z,21.08
2019-04-16T08:55:11.959Z,21.09
2019-04-16T08:56:12.124Z,20.87
2019-04-16T08:57:11.930Z,20.76
2019-04-16T08:58:12.862Z,20.26
2019-04-16T08:59:11.938Z,19.90
2019-04-16T09:00:15.241Z,20.00
2019-04-16T09:01:11.889Z,20.40
2019-04-16T09:02:11.896Z,20.16
2019-04-16T09:03:15.190Z,19.94
2019-04-16T09:04:11.869Z,20.07
2019-04-16T09:05:11.911Z,20.53
2019-04-16T09:06:13.471Z,20.97
2019-04-16T09:07:13.149Z,21.81
2019-04-16T09:08:13.751Z,22.36
2019-04-16T09:09:16.604Z,22.15
2019-04-16T09:10:18.241Z,21.98
2019-04-16T09:11:23.246Z,21.75
2019-04-16T09:12:12.781Z,21.58
2019-04-16T09:13:11.788Z,21.64
2019-04-16T09:14:11.846Z,21.46
2019-04-16T09:15:11.754Z,21.13
2019-04-16T09:16:11.728Z,20.38
2019-04-16T09:17:11.712Z,20.22
2019-04-16T09:18:11.737Z,20.20
2019-04-16T09:19:11.704Z,20.50
2019-04-16T09:20:11.690Z,20.51
2019-04-16T09:21:11.776Z,20.57
2019-04-16T09:22:15.549Z,20.50
2019-04-16T09:23:12.684Z,20.17
2019-04-16T09:24:11.642Z,20.30
2019-04-16T09:25:13.598Z,21.06
2019-04-16T09:26:15.203Z,22.02
2019-04-16T09:27:13.430Z,22.52
2019-04-16T09:28:24.506Z,22.76
2019-04-16T09:29:12.590Z,22.48
2019-04-16T09:30:16.879Z,21.99
2019-04-16T09:31:12.566Z,22.67
2019-04-16T09:32:11.559Z,22.84
2019-04-16T09:33:11.584Z,21.77
2019-04-16T09:34:11.676Z,20.97
2019-04-16T09:35:18.101Z,20.57
2019-04-16T09:36:12.531Z,19.95
2019-04-16T09:37:11.548Z,19.52
2019-04-16T09:38:13.116Z,19.38
2019-04-16T09:39:11.505Z,18.93
2019-04-16T09:40:18.004Z,19.01
2019-04-16T09:41:12.823Z,19.27
2019-04-16T09:42:11.454Z,19.40
2019-04-16T09:43:17.599Z,19.83
2019-04-16T09:44:12.812Z,20.44
2019-04-16T09:45:11.423Z,20.79
2019-04-16T09:46:17.647Z,21.89
2019-04-16T09:47:12.428Z,22.48
2019-04-16T09:48:11.427Z,23.07
2019-04-16T09:49:11.387Z,23.21
2019-04-16T09:50:11.611Z,21.89
2019-04-16T09:51:11.363Z,20.93
2019-04-16T09:52:11.366Z,20.76
2019-04-16T09:53:11.366Z,20.66
2019-04-16T09:54:13.455Z,20.35
2019-04-16T09:55:11.331Z,20.56
2019-04-16T09:56:11.317Z,21.00
2019-04-16T09:57:11.281Z,21.82
2019-04-16T09:58:11.315Z,22.45
2019-04-16T09:59:15.825Z,23.35
2019-04-16T10:00:12.267Z,24.34
2019-04-16T10:01:11.257Z,24.87
2019-04-16T10:02:11.248Z,24.84
2019-04-16T10:03:11.220Z,24.67
2019-04-16T10:04:11.235Z,24.89
2019-04-16T10:05:11.254Z,24.67
2019-04-16T10:06:11.197Z,23.93
2019-04-16T10:07:11.224Z,23.15
2019-04-16T10:08:12.606Z,22.64
2019-04-16T10:09:11.172Z,22.91
2019-04-16T10:10:11.176Z,22.84
2019-04-16T10:11:11.144Z,23.12
2019-04-16T10:12:11.147Z,23.19
2019-04-16T10:13:11.115Z,23.12
2019-04-16T10:14:11.323Z,23.41
2019-04-16T10:15:11.216Z,23.93
2019-04-16T10:16:13.543Z,24.52
2019-04-16T10:17:11.087Z,24.66
2019-04-16T10:18:11.096Z,25.20
2019-04-16T10:19:11.070Z,25.07
2019-04-16T10:20:11.066Z,25.38
2019-04-16T10:21:11.074Z,25.29
2019-04-16T10:22:11.029Z,25.45
2019-04-16T10:23:11.069Z,24.99
2019-04-16T10:24:13.170Z,25.04
2019-04-16T10:25:11.042Z,25.39
2019-04-16T10:26:10.996Z,25.14
2019-04-16T10:27:10.988Z,24.94
2019-04-16T10:28:10.960Z,24.98
2019-04-16T10:29:10.983Z,25.05
2019-04-16T10:30:10.975Z,24.68
2019-04-16T10:31:11.014Z,24.31
2019-04-16T10:32:10.920Z,23.89
2019-04-16T10:33:10.931Z,23.69
2019-04-16T10:34:10.929Z,23.52
2019-04-16T10:35:10.888Z,23.23
2019-04-16T10:36:10.900Z,23.06
2019-04-16T10:37:10.933Z,22.61
2019-04-16T10:38:13.521Z,22.64
2019-04-16T10:39:10.872Z,22.63
2019-04-16T10:40:10.868Z,23.19
2019-04-16T10:41:10.822Z,23.16
2019-04-16T10:42:10.859Z,23.31
2019-04-16T10:43:10.828Z,23.79
2019-04-16T10:44:10.808Z,23.81
2019-04-16T10:45:10.810Z,23.21
2019-04-16T10:46:10.800Z,23.39
2019-04-16T10:47:12.428Z,22.91
2019-04-16T10:48:10.798Z,22.67
2019-04-16T10:49:10.771Z,22.42
2019-04-16T10:50:10.803Z,22.19
2019-04-16T10:51:15.297Z,22.42
2019-04-16T10:52:11.748Z,22.75
2019-04-16T10:53:10.700Z,23.03
2019-04-16T10:54:10.710Z,22.99
2019-04-16T10:55:12.240Z,22.61
2019-04-16T10:56:10.670Z,22.33
2019-04-16T10:57:10.711Z,22.36
2019-04-16T10:58:10.694Z,22.35
2019-04-16T10:59:10.678Z,22.70
2019-04-16T11:00:10.660Z,22.79
2019-04-16T11:01:10.633Z,22.78
2019-04-16T11:02:10.844Z,23.29
2019-04-16T11:03:10.632Z,23.14
2019-04-16T11:04:10.624Z,22.99
2019-04-16T11:05:10.644Z,22.51
2019-04-16T11:06:10.634Z,21.52
2019-04-16T11:07:10.584Z,21.28
2019-04-16T11:08:10.559Z,21.79
2019-04-16T11:09:10.563Z,22.23
2019-04-16T11:10:11.901Z,22.24
2019-04-16T11:11:10.593Z,22.11
2019-04-16T11:12:10.512Z,21.99
2019-04-16T11:13:10.530Z,22.21
2019-04-16T11:14:10.542Z,22.36
2019-04-16T11:15:10.494Z,22.01
2019-04-16T11:16:10.490Z,21.98
2019-04-16T11:17:10.480Z,22.04
2019-04-16T11:18:10.450Z,22.17
2019-04-16T11:19:10.468Z,22.27
2019-04-16T11:20:10.447Z,22.35
2019-04-16T11:21:10.545Z,22.26
2019-04-16T11:22:10.449Z,22.02
2019-04-16T11:23:10.407Z,21.73
2019-04-16T11:24:10.387Z,21.79
2019-04-16T11:25:10.391Z,21.64
2019-04-16T11:26:10.376Z,22.02
2019-04-16T11:27:10.496Z,22.17
2019-04-16T11:28:13.716Z,22.49
2019-04-16T11:29:10.339Z,22.41
2019-04-16T11:30:10.435Z,22.44
2019-04-16T11:31:10.631Z,22.66
2019-04-16T11:32:10.305Z,22.36
2019-04-16T11:33:10.292Z,22.11
2019-04-16T11:34:10.293Z,21.55
2019-04-16T11:35:13.388Z,21.03
2019-04-16T11:36:19.585Z,20.51
2019-04-16T11:37:11.286Z,20.12
2019-04-16T11:38:10.250Z,19.89
2019-04-16T11:39:10.386Z,19.86
2019-04-16T11:40:10.543Z,19.90
2019-04-16T11:41:10.253Z,20.07
2019-04-16T11:42:10.200Z,20.12
2019-04-16T11:43:10.214Z,20.20
2019-04-16T11:44:15.618Z,20.37
2019-04-16T11:45:11.166Z,20.26
2019-04-16T11:46:10.209Z,20.37
2019-04-16T11:47:10.182Z,20.56
2019-04-16T11:48:10.251Z,20.66
2019-04-16T11:49:10.245Z,20.42
2019-04-16T11:50:10.175Z,20.23
2019-04-16T11:51:10.181Z,20.07
2019-04-16T11:52:10.206Z,19.94
2019-04-16T11:53:10.145Z,20.25
2019-04-16T11:54:11.827Z,20.20
2019-04-16T11:55:10.080Z,20.08
2019-04-16T11:56:10.125Z,20.15
2019-04-16T11:57:13.008Z,20.33
2019-04-16T11:58:10.190Z,20.54
2019-04-16T11:59:10.020Z,20.53
2019-04-16T12:00:10.087Z,20.81
2019-04-16T12:01:10.282Z,20.96
2019-04-16T12:02:10.067Z,21.34
2019-04-16T12:03:10.181Z,21.51
2019-04-16T12:04:10.934Z,21.53
2019-04-16T12:05:10.023Z,21.64
2019-04-16T12:06:10.167Z,21.86
2019-04-16T12:07:09.958Z,22.27
2019-04-16T12:08:09.939Z,22.51
2019-04-16T12:09:09.931Z,22.69
2019-04-16T12:10:09.943Z,21.93
2019-04-16T12:11:09.932Z,21.03
2019-04-16T12:12:09.947Z,20.57
2019-04-16T12:13:09.905Z,20.13
2019-04-16T12:14:10.427Z,20.00
2019-04-16T12:15:09.851Z,20.02
2019-04-16T12:16:09.885Z,19.83
2019-04-16T12:17:09.845Z,19.78
2019-04-16T12:18:09.849Z,19.72
2019-04-16T12:19:09.936Z,19.61
2019-04-16T12:20:09.867Z,19.57
2019-04-16T12:21:10.193Z,19.61
2019-04-16T12:22:09.865Z,19.55
2019-04-16T12:23:09.793Z,19.47
2019-04-16T12:24:09.763Z,19.43
2019-04-16T12:25:09.760Z,19.42
2019-04-16T12:26:10.006Z,19.71
2019-04-16T12:27:09.747Z,19.64
2019-04-16T12:28:12.577Z,19.58
2019-04-16T12:29:09.791Z,19.68
2019-04-16T12:30:09.741Z,19.75
2019-04-16T12:31:09.705Z,20.10
2019-04-16T12:32:09.723Z,20.50
2019-04-16T12:33:13.686Z,20.56
2019-04-16T12:34:09.687Z,20.78
2019-04-16T12:35:09.659Z,21.08
2019-04-16T12:36:12.758Z,21.16
2019-04-16T12:37:09.778Z,21.38
2019-04-16T12:38:13.131Z,21.37
2019-04-16T12:39:10.698Z,21.15
2019-04-16T12:40:09.613Z,21.31
2019-04-16T12:41:09.625Z,20.97
2019-04-16T12:42:09.624Z,21.01
2019-04-16T12:43:14.885Z,21.11
2019-04-16T12:44:10.557Z,21.16
2019-04-16T12:45:09.656Z,21.26
2019-04-16T12:46:09.539Z,21.24
2019-04-16T12:47:09.651Z,21.43
2019-04-16T12:48:09.553Z,21.38
2019-04-16T12:49:09.740Z,21.36
2019-04-16T12:50:09.499Z,21.06
2019-04-16T12:51:09.558Z,20.53
2019-04-16T12:52:15.605Z,20.33
2019-04-16T12:53:10.465Z,20.10
2019-04-16T12:54:09.465Z,19.85
2019-04-16T12:55:09.452Z,20.10
2019-04-16T12:56:09.478Z,19.98
2019-04-16T12:57:10.259Z,19.89
2019-04-16T12:58:09.400Z,20.04
2019-04-16T12:59:09.412Z,19.95
2019-04-16T13:00:09.457Z,19.85
2019-04-16T13:01:09.395Z,19.98
2019-04-16T13:02:13.642Z,20.05
2019-04-16T13:03:09.520Z,20.10
2019-04-16T13:04:09.380Z,20.38